createdAt,value
2023-04-23T00:01:20.505Z,5.13
2023-04-23T00:03:51.022Z,5.40
2023-04-23T00:06:22.459Z,5.17
2023-04-23T00:08:54.908Z,5.00
2023-04-23T00:11:24.754Z,5.13
2023-04-23T00:13:54.230Z,5.27
2023-04-23T00:16:24.602Z,5.23
2023-04-23T00:18:55.093Z,5.03
2023-04-23T00:21:24.426Z,5.40
2023-04-23T00:23:55.679Z,5.43
2023-04-23T00:26:24.992Z,4.70
2023-04-23T00:28:54.347Z,5.07
2023-04-23T00:31:24.250Z,6.00
2023-04-23T00:33:53.482Z,5.00
2023-04-23T00:36:22.966Z,5.63
2023-04-23T00:38:52.283Z,5.50
2023-04-23T00:41:23.861Z,5.53
2023-04-23T00:43:53.835Z,4.97
2023-04-23T00:46:23.817Z,6.23
2023-04-23T00:48:53.914Z,5.17
2023-04-23T00:51:24.444Z,5.50
2023-04-23T00:53:54.156Z,5.40
2023-04-23T00:56:25.932Z,5.77
2023-04-23T00:58:56.016Z,6.17
2023-04-23T01:01:26.423Z,5.90
2023-04-23T01:03:56.656Z,5.90
2023-04-23T01:06:28.839Z,5.73
2023-04-23T01:08:58.494Z,6.87
2023-04-23T01:11:29.164Z,8.27
2023-04-23T01:14:00.300Z,5.50
2023-04-23T01:16:29.934Z,5.63
2023-04-23T01:18:59.855Z,6.00
2023-04-23T01:21:31.361Z,6.43
2023-04-23T01:24:02.553Z,6.17
2023-04-23T01:26:31.810Z,6.70
2023-04-23T01:29:01.950Z,6.70
2023-04-23T01:31:32.685Z,6.60
2023-04-23T01:34:02.409Z,6.03
2023-04-23T01:36:32.347Z,5.40
2023-04-23T01:39:03.073Z,5.83
2023-04-23T01:41:32.999Z,5.77
2023-04-23T01:44:02.638Z,6.23
2023-04-23T01:46:33.231Z,6.20
2023-04-23T01:49:02.685Z,6.03
2023-04-23T01:51:32.493Z,5.93
2023-04-23T01:54:02.876Z,6.20
2023-04-23T01:56:34.063Z,6.23
2023-04-23T01:59:03.715Z,5.93
2023-04-23T02:01:44.439Z,6.80
2023-04-23T02:04:15.348Z,6.60
2023-04-23T02:06:47.557Z,6.10
2023-04-23T02:09:18.327Z,7.47
2023-04-23T02:11:47.867Z,6.30
2023-04-23T02:14:18.545Z,6.67
2023-04-23T02:16:48.061Z,5.90
2023-04-23T02:19:17.101Z,6.20
2023-04-23T02:21:46.428Z,6.20
2023-04-23T02:24:16.995Z,7.10
2023-04-23T02:26:47.512Z,6.70
2023-04-23T02:29:17.870Z,6.80
2023-04-23T02:31:47.911Z,6.00
2023-04-23T02:34:17.259Z,6.47
2023-04-23T02:36:46.446Z,6.50
2023-04-23T02:39:17.836Z,6.43
2023-04-23T02:41:47.767Z,6.27
2023-04-23T02:44:16.971Z,6.83
2023-04-23T02:46:46.657Z,6.60
2023-04-23T02:49:16.214Z,6.80
2023-04-23T02:51:45.978Z,6.87
2023-04-23T02:54:18.020Z,7.00
2023-04-23T02:56:47.481Z,6.73
2023-04-23T02:59:16.918Z,6.80
2023-04-23T03:01:46.246Z,6.90
2023-04-23T03:04:17.077Z,6.57
2023-04-23T03:06:47.906Z,6.37
2023-04-23T03:09:19.293Z,6.87
2023-04-23T03:11:49.310Z,6.50
2023-04-23T03:14:18.694Z,6.60
2023-04-23T03:16:47.956Z,7.03
2023-04-23T03:19:18.853Z,7.20
2023-04-23T03:21:48.573Z,6.23
2023-04-23T03:24:19.447Z,6.80
2023-04-23T03:26:48.882Z,6.60
2023-04-23T03:29:18.107Z,6.37
2023-04-23T03:31:47.233Z,6.23
2023-04-23T03:34:16.538Z,7.00
2023-04-23T03:36:48.789Z,6.23
2023-04-23T03:39:20.290Z,6.10
2023-04-23T03:41:52.915Z,6.13
2023-04-23T03:44:26.358Z,6.20
2023-04-23T03:46:56.293Z,5.73
2023-04-23T03:49:27.484Z,6.07
2023-04-23T03:51:57.930Z,6.13
2023-04-23T03:54:29.460Z,6.67
2023-04-23T03:57:14.896Z,5.90
2023-04-23T04:00:10.270Z,6.43
2023-04-23T04:02:42.593Z,5.90
2023-04-23T04:05:12.773Z,6.20
2023-04-23T04:07:42.519Z,6.43
2023-04-23T04:10:13.276Z,6.47
2023-04-23T04:12:45.171Z,6.77
2023-04-23T04:15:15.444Z,6.03
2023-04-23T04:17:45.894Z,6.43
2023-04-23T04:20:14.935Z,6.23
2023-04-23T04:22:43.988Z,6.23
2023-04-23T04:25:14.370Z,6.37
2023-04-23T04:27:43.727Z,6.53
2023-04-23T04:30:13.529Z,6.20
2023-04-23T04:32:43.214Z,5.97
2023-04-23T04:35:13.281Z,6.77
2023-04-23T04:37:44.050Z,6.33
2023-04-23T04:40:16.115Z,7.53
2023-04-23T04:42:46.655Z,6.20
2023-04-23T04:45:17.093Z,6.90
2023-04-23T04:47:46.244Z,7.00
2023-04-23T04:50:15.604Z,5.97
2023-04-23T04:52:44.763Z,6.63
2023-04-23T04:55:15.273Z,6.93
2023-04-23T04:57:44.663Z,6.97
2023-04-23T05:00:25.433Z,6.47
2023-04-23T05:02:55.046Z,6.53
2023-04-23T05:05:25.267Z,6.80
2023-04-23T05:07:55.199Z,7.07
2023-04-23T05:10:25.759Z,6.27
2023-04-23T05:12:54.994Z,6.50
2023-04-23T05:15:24.282Z,7.20
2023-04-23T05:17:54.160Z,6.37
2023-04-23T05:20:23.507Z,6.90
2023-04-23T05:22:52.555Z,6.47
2023-04-23T05:25:21.696Z,6.40
2023-04-23T05:27:53.405Z,6.60
2023-04-23T05:30:37.349Z,6.27
2023-04-23T05:33:06.728Z,6.73
2023-04-23T05:35:36.666Z,6.60
2023-04-23T05:38:06.499Z,6.77
2023-04-23T05:40:35.966Z,6.53
2023-04-23T05:43:06.529Z,6.17
2023-04-23T05:45:35.656Z,6.70
2023-04-23T05:48:04.873Z,6.40
2023-04-23T05:50:34.126Z,5.93
2023-04-23T05:53:03.482Z,6.27
2023-04-23T05:55:32.689Z,5.77
2023-04-23T05:58:02.480Z,5.83
2023-04-23T06:00:35.551Z,5.93
2023-04-23T06:03:05.151Z,6.20
2023-04-23T06:05:34.613Z,6.20
2023-04-23T06:08:03.801Z,6.20
2023-04-23T06:10:33.542Z,6.23
2023-04-23T06:13:03.341Z,6.60
2023-04-23T06:15:33.942Z,6.10
2023-04-23T06:18:03.292Z,6.17
2023-04-23T06:20:32.621Z,6.40
2023-04-23T06:23:02.831Z,5.97
2023-04-23T06:25:32.126Z,5.93
2023-04-23T06:28:01.257Z,6.10
2023-04-23T06:30:37.188Z,6.13
2023-04-23T06:33:06.400Z,5.97
2023-04-23T06:35:35.373Z,5.90
2023-04-23T06:38:04.565Z,6.20
2023-04-23T06:40:33.890Z,6.10
2023-04-23T06:43:04.580Z,5.97
2023-04-23T06:45:43.954Z,5.83
2023-04-23T06:48:12.987Z,6.37
2023-04-23T06:50:42.125Z,5.87
2023-04-23T06:53:11.148Z,6.03
2023-04-23T06:55:40.591Z,5.67
2023-04-23T06:58:09.974Z,6.13
2023-04-23T07:00:39.288Z,5.90
2023-04-23T07:03:10.351Z,5.90
2023-04-23T07:05:39.562Z,5.50
2023-04-23T07:08:08.561Z,5.60
2023-04-23T07:10:37.842Z,4.97
2023-04-23T07:13:07.143Z,5.20
2023-04-23T07:15:38.001Z,5.67
2023-04-23T07:18:07.528Z,5.10
2023-04-23T07:20:38.615Z,5.53
2023-04-23T07:23:07.821Z,5.30
2023-04-23T07:25:36.850Z,5.90
2023-04-23T07:28:06.431Z,5.67
2023-04-23T07:30:35.620Z,5.33
2023-04-23T07:33:05.134Z,5.47
2023-04-23T07:35:34.414Z,4.97
2023-04-23T07:38:05.154Z,5.47
2023-04-23T07:40:34.453Z,5.80
2023-04-23T07:43:03.937Z,5.10
2023-04-23T07:45:33.195Z,5.33
2023-04-23T07:48:02.578Z,5.60
2023-04-23T07:50:31.950Z,5.60
2023-04-23T07:53:01.195Z,5.53
2023-04-23T07:55:32.163Z,5.50
2023-04-23T07:58:01.396Z,5.87
2023-04-23T08:00:30.813Z,5.10
2023-04-23T08:03:00.522Z,5.30
2023-04-23T08:05:30.052Z,5.60
2023-04-23T08:07:59.373Z,5.80
2023-04-23T08:10:28.702Z,5.27
2023-04-23T08:12:59.205Z,5.53
2023-04-23T08:15:28.303Z,5.30
2023-04-23T08:17:57.564Z,5.80
2023-04-23T08:20:26.978Z,5.20
2023-04-23T08:22:56.729Z,5.47
2023-04-23T08:25:26.127Z,5.80
2023-04-23T08:27:55.399Z,5.10
2023-04-23T08:30:27.124Z,5.70
2023-04-23T08:32:56.860Z,5.63
2023-04-23T08:35:26.157Z,5.20
2023-04-23T08:37:55.757Z,5.30
2023-04-23T08:40:25.343Z,5.60
2023-04-23T08:42:59.303Z,5.80
2023-04-23T08:45:30.759Z,5.60
2023-04-23T08:48:03.071Z,5.37
2023-04-23T08:50:33.354Z,5.63
2023-04-23T08:53:06.453Z,5.23
2023-04-23T08:55:36.833Z,5.43
2023-04-23T08:58:07.621Z,4.90
2023-04-23T09:00:39.212Z,5.53
2023-04-23T09:03:09.820Z,5.33
2023-04-23T09:05:39.130Z,4.97
2023-04-23T09:08:09.559Z,5.00
2023-04-23T09:10:41.527Z,5.17
2023-04-23T09:13:13.299Z,5.07
2023-04-23T09:15:44.408Z,5.07
2023-04-23T09:18:13.531Z,5.20
2023-04-23T09:20:43.015Z,5.07
2023-04-23T09:23:16.188Z,5.07
2023-04-23T09:25:45.698Z,4.60
2023-04-23T09:28:15.489Z,4.53
2023-04-23T09:30:47.701Z,4.77
2023-04-23T09:33:18.374Z,5.10
2023-04-23T09:35:48.045Z,5.00
2023-04-23T09:38:18.055Z,5.37
2023-04-23T09:40:47.457Z,5.00
2023-04-23T09:43:16.611Z,5.27
2023-04-23T09:45:51.897Z,4.97
2023-04-23T09:48:22.433Z,5.23
2023-04-23T09:50:51.623Z,5.23
2023-04-23T09:53:21.260Z,4.80
2023-04-23T09:55:53.984Z,4.97
2023-04-23T09:58:28.831Z,4.27
2023-04-23T10:01:08.041Z,4.77
2023-04-23T10:03:39.106Z,5.20
2023-04-23T10:06:17.300Z,4.47
2023-04-23T10:08:55.154Z,4.90
2023-04-23T10:11:25.479Z,4.60
2023-04-23T10:13:55.888Z,4.83
2023-04-23T10:16:30.535Z,4.80
2023-04-23T10:19:07.388Z,4.17
2023-04-23T10:21:46.503Z,4.40
2023-04-23T10:24:24.830Z,4.50
2023-04-23T10:26:58.406Z,4.60
2023-04-23T10:29:29.755Z,4.13
2023-04-23T10:32:02.592Z,4.37
2023-04-23T10:34:33.372Z,4.37
2023-04-23T10:37:04.218Z,4.20
2023-04-23T10:39:34.832Z,4.00
2023-04-23T10:42:05.696Z,4.13
2023-04-23T10:47:15.277Z,4.10
2023-04-23T10:49:45.681Z,3.80
2023-04-23T10:52:20.660Z,3.80
2023-04-23T10:55:00.009Z,3.73
2023-04-23T10:57:29.978Z,3.90
2023-04-23T10:59:59.742Z,4.03
2023-04-23T11:02:44.760Z,3.80
2023-04-23T11:05:15.508Z,4.07
2023-04-23T11:08:18.156Z,3.90
2023-04-23T11:10:57.798Z,3.60
2023-04-23T11:13:28.223Z,3.77
2023-04-23T11:16:16.329Z,4.00
2023-04-23T11:19:02.989Z,3.50
2023-04-23T11:21:58.619Z,3.70
2023-04-23T11:24:30.366Z,3.90
2023-04-23T11:27:01.456Z,3.77
2023-04-23T11:29:31.125Z,3.47
2023-04-23T11:32:03.661Z,3.67
2023-04-23T11:34:36.343Z,3.70
2023-04-23T11:37:06.024Z,3.57
2023-04-23T11:39:35.119Z,3.33
2023-04-23T11:42:05.840Z,3.37
2023-04-23T11:44:34.918Z,3.70
2023-04-23T11:47:04.182Z,3.63
2023-04-23T11:49:34.858Z,3.20
2023-04-23T11:52:05.528Z,3.30
2023-04-23T11:54:35.446Z,3.60
2023-04-23T11:57:06.099Z,3.30
2023-04-23T11:59:35.344Z,3.17
2023-04-23T12:02:04.834Z,2.87
2023-04-23T12:04:35.426Z,2.80
2023-04-23T12:07:15.974Z,2.80
2023-04-23T12:09:52.561Z,3.13
2023-04-23T12:12:22.038Z,2.97
2023-04-23T12:14:51.364Z,3.10
2023-04-23T12:17:20.583Z,3.20
2023-04-23T12:19:50.999Z,2.60
2023-04-23T12:22:28.088Z,2.90
2023-04-23T12:24:57.269Z,2.97
2023-04-23T12:27:28.165Z,3.00
2023-04-23T12:30:01.697Z,2.60
2023-04-23T12:32:34.476Z,2.60
2023-04-23T12:35:06.385Z,3.10
2023-04-23T12:37:38.527Z,2.90
2023-04-23T12:40:09.389Z,2.87
2023-04-23T12:42:38.558Z,3.10
2023-04-23T12:45:10.128Z,3.33
2023-04-23T12:47:42.803Z,2.70
2023-04-23T12:50:14.085Z,2.87
2023-04-23T12:52:43.678Z,3.00
2023-04-23T12:55:13.059Z,2.90
2023-04-23T12:57:42.539Z,2.70
2023-04-23T13:00:12.608Z,2.63
2023-04-23T13:02:42.052Z,2.50
2023-04-23T13:05:14.247Z,3.20
2023-04-23T13:07:43.902Z,2.80
2023-04-23T13:10:13.356Z,2.67
2023-04-23T13:12:42.535Z,2.70
2023-04-23T13:15:14.240Z,2.80
2023-04-23T13:17:43.883Z,3.10
2023-04-23T13:20:14.904Z,3.00
2023-04-23T13:22:44.129Z,3.10
2023-04-23T13:25:13.773Z,3.07
2023-04-23T13:27:43.362Z,3.10
2023-04-23T13:30:13.741Z,3.00
2023-04-23T13:32:42.926Z,2.70
2023-04-23T13:35:13.478Z,2.67
2023-04-23T13:37:44.224Z,3.30
2023-04-23T13:40:15.824Z,2.87
2023-04-23T13:42:49.943Z,3.00
2023-04-23T13:45:19.440Z,2.80
2023-04-23T13:47:49.008Z,2.73
2023-04-23T13:50:18.325Z,2.40
2023-04-23T13:52:57.404Z,3.00
2023-04-23T13:55:27.374Z,2.30
2023-04-23T13:57:59.213Z,2.67
2023-04-23T14:00:30.131Z,2.20
2023-04-23T14:02:59.689Z,2.30
2023-04-23T14:05:29.173Z,3.00
2023-04-23T14:08:00.241Z,2.37
2023-04-23T14:10:29.654Z,2.40
2023-04-23T14:12:59.016Z,2.50
2023-04-23T14:15:28.514Z,2.40
2023-04-23T14:17:57.954Z,2.20
2023-04-23T14:20:33.367Z,2.57
2023-04-23T14:23:25.474Z,2.47
2023-04-23T14:25:59.600Z,2.50
2023-04-23T14:28:31.051Z,2.43
2023-04-23T14:31:09.865Z,2.57
2023-04-23T14:36:39.565Z,2.50
2023-04-23T14:39:10.192Z,2.70
2023-04-23T14:41:40.156Z,2.70
2023-04-23T14:44:09.733Z,2.50
2023-04-23T14:46:39.095Z,2.40
2023-04-23T14:49:08.870Z,2.80
2023-04-23T14:51:50.106Z,2.33
2023-04-23T14:54:21.617Z,2.50
2023-04-23T14:56:52.146Z,2.60
2023-04-23T14:59:27.357Z,2.70
2023-04-23T15:02:01.172Z,2.50
2023-04-23T15:04:40.231Z,2.63
2023-04-23T15:07:18.438Z,2.87
2023-04-23T15:09:56.717Z,4.90
2023-04-23T15:13:03.530Z,2.97
2023-04-23T15:15:44.294Z,2.90
2023-04-23T15:18:20.840Z,2.20
2023-04-23T15:20:50.019Z,2.50
2023-04-23T15:23:27.205Z,2.70
2023-04-23T15:26:07.196Z,2.87
2023-04-23T15:28:45.997Z,2.83
2023-04-23T15:31:16.375Z,2.80
2023-04-23T15:34:02.343Z,2.73
2023-04-23T15:36:55.875Z,2.73
2023-04-23T15:39:38.310Z,3.10
2023-04-23T15:42:18.411Z,3.20
2023-04-23T15:45:16.041Z,3.17
2023-04-23T15:47:55.296Z,3.07
2023-04-23T15:50:30.460Z,3.33
2023-04-23T15:53:07.462Z,3.30
2023-04-23T15:55:48.345Z,3.30
2023-04-23T15:58:20.337Z,3.33
2023-04-23T16:01:10.856Z,3.00
2023-04-23T16:04:07.936Z,2.97
2023-04-23T16:06:38.592Z,2.73
2023-04-23T16:09:08.477Z,3.10
2023-04-23T16:11:39.104Z,2.83
2023-04-23T16:14:28.437Z,3.07
2023-04-23T16:17:01.925Z,3.73
2023-04-23T16:19:31.151Z,2.97
2023-04-23T16:22:19.202Z,2.90
2023-04-23T16:25:27.610Z,2.70
2023-04-23T16:28:00.982Z,3.00
2023-04-23T16:30:32.509Z,3.23
2023-04-23T16:33:02.074Z,3.33
2023-04-23T16:38:01.710Z,2.93
2023-04-23T16:40:34.860Z,3.20
2023-04-23T16:46:10.751Z,3.50
2023-04-23T16:48:56.149Z,3.33
2023-04-23T16:51:34.634Z,3.67
2023-04-23T16:54:03.633Z,3.37
2023-04-23T16:56:32.901Z,3.00
2023-04-23T16:59:02.487Z,3.60
2023-04-23T17:01:33.023Z,3.47
2023-04-23T17:04:02.763Z,3.40
2023-04-23T17:06:33.313Z,3.57
2023-04-23T17:09:11.815Z,3.43
2023-04-23T17:11:41.372Z,3.27
2023-04-23T17:14:10.449Z,3.50
2023-04-23T17:16:41.537Z,3.40
2023-04-23T17:19:11.649Z,3.80
2023-04-23T17:21:41.078Z,3.63
2023-04-23T17:24:10.268Z,3.50
2023-04-23T17:26:39.856Z,3.87
2023-04-23T17:29:11.666Z,3.17
2023-04-23T17:31:43.068Z,3.63
2023-04-23T17:34:12.594Z,3.40
2023-04-23T17:36:41.661Z,3.27
2023-04-23T17:39:14.332Z,3.70
2023-04-23T17:41:44.145Z,3.13
2023-04-23T17:44:13.533Z,3.80
2023-04-23T17:46:43.910Z,3.60
2023-04-23T17:49:13.060Z,4.70
2023-04-23T17:51:42.769Z,4.10
2023-04-23T17:54:19.743Z,3.70
2023-04-23T17:56:48.890Z,3.60
2023-04-23T17:59:18.356Z,3.70
2023-04-23T18:01:50.696Z,3.73
2023-04-23T18:04:20.061Z,3.57
2023-04-23T18:06:49.533Z,4.00
2023-04-23T18:09:18.777Z,4.30
2023-04-23T18:11:48.198Z,4.20
2023-04-23T18:14:17.806Z,4.17
2023-04-23T18:16:48.561Z,3.77
2023-04-23T18:19:17.998Z,3.90
2023-04-23T18:21:47.782Z,3.90
2023-04-23T18:24:19.908Z,3.57
2023-04-23T18:26:52.010Z,4.17
2023-04-23T18:29:21.512Z,4.50
2023-04-23T18:31:54.054Z,4.37
2023-04-23T18:34:24.771Z,4.43
2023-04-23T18:36:56.179Z,4.27
2023-04-23T18:39:25.984Z,4.17
2023-04-23T18:41:55.730Z,3.63
2023-04-23T18:44:25.184Z,4.00
2023-04-23T18:46:55.953Z,4.20
2023-04-23T18:49:45.485Z,5.63
2023-04-23T18:52:14.845Z,3.97
2023-04-23T18:54:44.254Z,4.37
2023-04-23T18:57:13.553Z,3.90
2023-04-23T18:59:43.385Z,4.30
2023-04-23T19:02:21.426Z,4.27
2023-04-23T19:04:58.496Z,4.30
2023-04-23T19:07:27.795Z,4.07
2023-04-23T19:09:57.207Z,4.40
2023-04-23T19:12:26.873Z,4.43
2023-04-23T19:14:56.333Z,4.50
2023-04-23T19:17:27.410Z,4.57
2023-04-23T19:19:56.823Z,4.50
2023-04-23T19:22:26.400Z,4.60
2023-04-23T19:24:55.739Z,4.50
2023-04-23T19:27:25.927Z,4.70
2023-04-23T19:29:56.586Z,4.10
2023-04-23T19:32:27.927Z,4.80
2023-04-23T19:34:57.579Z,4.80
2023-04-23T19:37:26.909Z,4.60
2023-04-23T19:39:56.917Z,4.80
2023-04-23T19:42:26.416Z,4.50
2023-04-23T19:44:55.689Z,4.60
2023-04-23T19:47:25.167Z,4.57
2023-04-23T19:49:55.769Z,5.00
2023-04-23T19:52:27.630Z,4.63
2023-04-23T19:54:57.187Z,4.80
2023-04-23T19:57:27.879Z,4.97
2023-04-23T19:59:57.104Z,5.27
2023-04-23T20:02:27.027Z,5.13
2023-04-23T20:04:57.736Z,4.17
2023-04-23T20:07:27.019Z,4.60
2023-04-23T20:09:56.145Z,4.70
2023-04-23T20:12:26.063Z,5.27
2023-04-23T20:14:55.814Z,4.73
2023-04-23T20:17:26.496Z,4.63
2023-04-23T20:20:01.472Z,4.80
2023-04-23T20:22:30.760Z,4.90
2023-04-23T20:25:01.871Z,4.50
2023-04-23T20:27:31.684Z,7.50
2023-04-23T20:30:00.886Z,4.23
2023-04-23T20:32:49.301Z,4.27
2023-04-23T20:35:48.895Z,4.33
2023-04-23T20:38:19.353Z,4.43
2023-04-23T20:40:50.145Z,3.83
2023-04-23T20:43:19.290Z,4.03
2023-04-23T20:45:49.777Z,4.63
2023-04-23T20:48:20.017Z,4.13
2023-04-23T20:50:50.874Z,3.80
2023-04-23T20:53:20.267Z,5.00
2023-04-23T20:55:49.622Z,4.40
2023-04-23T20:58:19.167Z,4.77
2023-04-23T21:00:49.721Z,4.53
2023-04-23T21:03:19.715Z,5.13
2023-04-23T21:05:52.115Z,4.70
2023-04-23T21:08:21.363Z,4.73
2023-04-23T21:10:51.065Z,4.50
2023-04-23T21:13:20.744Z,4.70
2023-04-23T21:15:50.739Z,4.47
2023-04-23T21:18:20.890Z,4.70
2023-04-23T21:20:51.603Z,5.20
2023-04-23T21:23:20.900Z,5.37
2023-04-23T21:25:50.271Z,4.93
2023-04-23T21:28:19.810Z,4.50
2023-04-23T21:30:51.477Z,5.80
2023-04-23T21:33:22.327Z,4.97
2023-04-23T21:35:54.583Z,5.50
2023-04-23T21:38:23.875Z,5.17
2023-04-23T21:40:53.392Z,4.97
2023-04-23T21:43:24.364Z,5.10
2023-04-23T21:45:55.743Z,5.03
2023-04-23T21:48:25.114Z,5.50
2023-04-23T21:50:55.766Z,5.17
2023-04-23T21:53:25.395Z,4.80
2023-04-23T21:55:54.445Z,5.03
2023-04-23T21:58:23.625Z,5.40
2023-04-23T22:00:52.800Z,5.37
2023-04-23T22:03:35.777Z,5.27
2023-04-23T22:06:10.379Z,4.93
2023-04-23T22:08:40.564Z,5.70
2023-04-23T22:11:09.797Z,4.90
2023-04-23T22:13:39.175Z,5.67
2023-04-23T22:16:24.337Z,5.97
2023-04-23T22:18:57.495Z,5.67
2023-04-23T22:21:28.367Z,5.63
2023-04-23T22:23:57.639Z,5.67
2023-04-23T22:26:26.871Z,5.20
2023-04-23T22:28:56.551Z,5.23
2023-04-23T22:31:26.321Z,5.67
2023-04-23T22:33:55.874Z,5.80
2023-04-23T22:36:25.318Z,5.70
2023-04-23T22:38:55.672Z,5.17
2023-04-23T22:41:24.751Z,5.90
2023-04-23T22:43:54.605Z,5.53
2023-04-23T22:46:23.793Z,4.97
2023-04-23T22:48:53.475Z,5.67
2023-04-23T22:51:22.548Z,5.97
2023-04-23T22:53:51.651Z,4.80
2023-04-23T22:56:22.671Z,5.50
2023-04-23T22:58:52.507Z,5.50
2023-04-23T23:01:21.966Z,5.07
2023-04-23T23:03:51.561Z,5.50
2023-04-23T23:06:20.724Z,5.30
2023-04-23T23:08:49.955Z,4.93
2023-04-23T23:11:19.372Z,5.13
2023-04-23T23:13:50.263Z,5.57
2023-04-23T23:16:19.565Z,5.43
2023-04-23T23:18:48.896Z,5.50
2023-04-23T23:21:18.246Z,5.37
2023-04-23T23:23:47.767Z,5.60
2023-04-23T23:26:17.059Z,5.60
2023-04-23T23:28:46.336Z,5.60
2023-04-23T23:31:18.391Z,5.20
2023-04-23T23:33:47.850Z,6.00
2023-04-23T23:36:16.876Z,5.30
2023-04-23T23:38:46.286Z,5.30
2023-04-23T23:41:15.598Z,6.03
2023-04-23T23:43:44.989Z,6.03
2023-04-23T23:46:14.293Z,5.50
2023-04-23T23:48:45.324Z,5.40
2023-04-23T23:51:14.904Z,5.40
2023-04-23T23:53:44.290Z,5.50
2023-04-23T23:56:13.586Z,5.30
2023-04-23T23:58:42.743Z,5.43
